sensor_id;sensor_type;location;lat;lon;timestamp;P1;durP1;ratioP1;P2;durP2;ratioP2
14165;SDS011;7162;52.422;13.754;2023-03-01T00:01:23;7.07;;;3.33;;
14165;SDS011;7162;52.422;13.754;2023-03-01T00:03:51;8.77;;;2.77;;
14165;SDS011;7162;52.422;13.754;2023-03-01T00:06:18;4.60;;;3.20;;
14165;SDS011;7162;52.422;13.754;2023-03-01T00:08:47;5.50;;;3.00;;
14165;SDS011;7162;52.422;13.754;2023-03-01T00:11:15;5.90;;;3.10;;
14165;SDS011;7162;52.422;13.754;2023-03-01T00:13:43;3.50;;;2.57;;
14165;SDS011;7162;52.422;13.754;2023-03-01T00:16:12;3.50;;;2.37;;
14165;SDS011;7162;52.422;13.754;2023-03-01T00:18:39;4.37;;;3.07;;
14165;SDS011;7162;52.422;13.754;2023-03-01T00:21:06;5.43;;;3.47;;
14165;SDS011;7162;52.422;13.754;2023-03-01T00:23:33;8.83;;;2.60;;
14165;SDS011;7162;52.422;13.754;2023-03-01T00:26:04;7.17;;;3.47;;
14165;SDS011;7162;52.422;13.754;2023-03-01T00:28:32;9.23;;;2.77;;
14165;SDS011;7162;52.422;13.754;2023-03-01T00:31:02;5.20;;;3.50;;
14165;SDS011;7162;52.422;13.754;2023-03-01T00:33:29;2.70;;;2.07;;
14165;SDS011;7162;52.422;13.754;2023-03-01T00:35:57;5.83;;;2.90;;
14165;SDS011;7162;52.422;13.754;2023-03-01T00:38:24;5.00;;;3.27;;
14165;SDS011;7162;52.422;13.754;2023-03-01T00:40:51;6.97;;;4.10;;
14165;SDS011;7162;52.422;13.754;2023-03-01T00:43:19;6.17;;;3.20;;
14165;SDS011;7162;52.422;13.754;2023-03-01T00:45:46;10.50;;;3.97;;
14165;SDS011;7162;52.422;13.754;2023-03-01T00:48:14;7.60;;;3.40;;
14165;SDS011;7162;52.422;13.754;2023-03-01T00:50:41;8.43;;;3.33;;
14165;SDS011;7162;52.422;13.754;2023-03-01T00:53:08;4.80;;;3.00;;
14165;SDS011;7162;52.422;13.754;2023-03-01T00:55:35;6.47;;;3.10;;
14165;SDS011;7162;52.422;13.754;2023-03-01T00:58:02;4.73;;;3.30;;
14165;SDS011;7162;52.422;13.754;2023-03-01T01:00:31;7.40;;;2.43;;
14165;SDS011;7162;52.422;13.754;2023-03-01T01:02:58;4.00;;;2.90;;
14165;SDS011;7162;52.422;13.754;2023-03-01T01:05:25;3.53;;;2.87;;
14165;SDS011;7162;52.422;13.754;2023-03-01T01:07:52;8.23;;;3.47;;
14165;SDS011;7162;52.422;13.754;2023-03-01T01:10:19;4.50;;;2.70;;
14165;SDS011;7162;52.422;13.754;2023-03-01T01:12:46;7.13;;;3.80;;
14165;SDS011;7162;52.422;13.754;2023-03-01T01:15:13;7.50;;;4.17;;
14165;SDS011;7162;52.422;13.754;2023-03-01T01:17:42;10.90;;;5.00;;
14165;SDS011;7162;52.422;13.754;2023-03-01T01:20:10;6.67;;;3.70;;
14165;SDS011;7162;52.422;13.754;2023-03-01T01:22:38;9.23;;;4.00;;
14165;SDS011;7162;52.422;13.754;2023-03-01T01:25:05;5.60;;;3.73;;
14165;SDS011;7162;52.422;13.754;2023-03-01T01:27:32;5.33;;;3.73;;
14165;SDS011;7162;52.422;13.754;2023-03-01T01:29:59;5.87;;;3.70;;
14165;SDS011;7162;52.422;13.754;2023-03-01T01:32:26;7.83;;;3.40;;
14165;SDS011;7162;52.422;13.754;2023-03-01T01:34:54;7.50;;;3.97;;
14165;SDS011;7162;52.422;13.754;2023-03-01T01:37:21;6.93;;;2.93;;
14165;SDS011;7162;52.422;13.754;2023-03-01T01:39:55;12.93;;;3.70;;
14165;SDS011;7162;52.422;13.754;2023-03-01T01:42:26;6.37;;;3.30;;
14165;SDS011;7162;52.422;13.754;2023-03-01T01:47:38;5.93;;;2.70;;
14165;SDS011;7162;52.422;13.754;2023-03-01T01:50:08;2.90;;;2.53;;
14165;SDS011;7162;52.422;13.754;2023-03-01T01:52:36;5.70;;;3.07;;
14165;SDS011;7162;52.422;13.754;2023-03-01T01:55:05;7.70;;;3.93;;
14165;SDS011;7162;52.422;13.754;2023-03-01T01:57:34;6.97;;;2.80;;
14165;SDS011;7162;52.422;13.754;2023-03-01T02:00:03;4.30;;;3.57;;
14165;SDS011;7162;52.422;13.754;2023-03-01T02:02:32;6.43;;;3.07;;
14165;SDS011;7162;52.422;13.754;2023-03-01T02:05:01;6.00;;;3.20;;
14165;SDS011;7162;52.422;13.754;2023-03-01T02:07:30;6.00;;;2.83;;
14165;SDS011;7162;52.422;13.754;2023-03-01T02:09:57;5.00;;;3.03;;
14165;SDS011;7162;52.422;13.754;2023-03-01T02:12:25;4.53;;;2.70;;
14165;SDS011;7162;52.422;13.754;2023-03-01T02:14:52;2.83;;;2.50;;
14165;SDS011;7162;52.422;13.754;2023-03-01T02:17:19;4.57;;;2.90;;
14165;SDS011;7162;52.422;13.754;2023-03-01T02:19:50;7.27;;;3.03;;
14165;SDS011;7162;52.422;13.754;2023-03-01T02:22:22;8.10;;;4.00;;
14165;SDS011;7162;52.422;13.754;2023-03-01T02:24:56;7.07;;;3.50;;
14165;SDS011;7162;52.422;13.754;2023-03-01T02:27:29;5.40;;;3.30;;
14165;SDS011;7162;52.422;13.754;2023-03-01T02:29:57;9.50;;;3.27;;
14165;SDS011;7162;52.422;13.754;2023-03-01T02:32:24;5.80;;;3.20;;
14165;SDS011;7162;52.422;13.754;2023-03-01T02:34:51;7.03;;;3.37;;
14165;SDS011;7162;52.422;13.754;2023-03-01T02:37:18;4.73;;;2.80;;
14165;SDS011;7162;52.422;13.754;2023-03-01T02:39:50;5.73;;;3.13;;
14165;SDS011;7162;52.422;13.754;2023-03-01T02:42:22;5.00;;;3.47;;
14165;SDS011;7162;52.422;13.754;2023-03-01T02:44:50;9.77;;;4.13;;
14165;SDS011;7162;52.422;13.754;2023-03-01T02:47:20;10.50;;;3.80;;
14165;SDS011;7162;52.422;13.754;2023-03-01T02:49:46;5.23;;;3.30;;
14165;SDS011;7162;52.422;13.754;2023-03-01T02:55:05;5.67;;;3.30;;
14165;SDS011;7162;52.422;13.754;2023-03-01T02:57:33;4.20;;;3.00;;
14165;SDS011;7162;52.422;13.754;2023-03-01T03:00:02;6.47;;;3.90;;
14165;SDS011;7162;52.422;13.754;2023-03-01T03:02:33;5.13;;;3.60;;
14165;SDS011;7162;52.422;13.754;2023-03-01T03:05:04;4.60;;;2.97;;
14165;SDS011;7162;52.422;13.754;2023-03-01T03:07:33;7.60;;;3.43;;
14165;SDS011;7162;52.422;13.754;2023-03-01T03:10:01;6.57;;;2.80;;
14165;SDS011;7162;52.422;13.754;2023-03-01T03:12:28;5.83;;;2.90;;
14165;SDS011;7162;52.422;13.754;2023-03-01T03:14:56;8.33;;;3.60;;
14165;SDS011;7162;52.422;13.754;2023-03-01T03:17:25;5.90;;;2.93;;
14165;SDS011;7162;52.422;13.754;2023-03-01T03:19:55;5.30;;;2.90;;
14165;SDS011;7162;52.422;13.754;2023-03-01T03:22:29;4.90;;;3.17;;
14165;SDS011;7162;52.422;13.754;2023-03-01T03:24:56;5.70;;;2.90;;
14165;SDS011;7162;52.422;13.754;2023-03-01T03:27:28;4.83;;;3.17;;
14165;SDS011;7162;52.422;13.754;2023-03-01T03:29:57;3.60;;;2.73;;
14165;SDS011;7162;52.422;13.754;2023-03-01T03:32:24;4.70;;;3.13;;
14165;SDS011;7162;52.422;13.754;2023-03-01T03:34:51;6.40;;;3.23;;
14165;SDS011;7162;52.422;13.754;2023-03-01T03:37:19;8.97;;;3.47;;
14165;SDS011;7162;52.422;13.754;2023-03-01T03:40:07;3.63;;;2.83;;
14165;SDS011;7162;52.422;13.754;2023-03-01T03:42:40;4.07;;;2.00;;
14165;SDS011;7162;52.422;13.754;2023-03-01T03:45:08;7.07;;;2.90;;
14165;SDS011;7162;52.422;13.754;2023-03-01T03:47:35;4.67;;;2.67;;
14165;SDS011;7162;52.422;13.754;2023-03-01T03:50:02;4.13;;;2.53;;
14165;SDS011;7162;52.422;13.754;2023-03-01T03:52:31;7.63;;;2.73;;
14165;SDS011;7162;52.422;13.754;2023-03-01T03:54:58;3.83;;;2.50;;
14165;SDS011;7162;52.422;13.754;2023-03-01T03:57:26;5.60;;;2.70;;
14165;SDS011;7162;52.422;13.754;2023-03-01T03:59:53;8.57;;;2.60;;
14165;SDS011;7162;52.422;13.754;2023-03-01T04:02:22;3.23;;;2.80;;
14165;SDS011;7162;52.422;13.754;2023-03-01T04:04:51;3.07;;;2.70;;
14165;SDS011;7162;52.422;13.754;2023-03-01T04:07:20;10.07;;;3.50;;
14165;SDS011;7162;52.422;13.754;2023-03-01T04:09:51;6.40;;;2.90;;
14165;SDS011;7162;52.422;13.754;2023-03-01T04:12:18;4.90;;;3.03;;
14165;SDS011;7162;52.422;13.754;2023-03-01T04:14:48;6.00;;;2.83;;
14165;SDS011;7162;52.422;13.754;2023-03-01T04:17:15;5.00;;;2.43;;
14165;SDS011;7162;52.422;13.754;2023-03-01T04:19:43;6.57;;;2.67;;
14165;SDS011;7162;52.422;13.754;2023-03-01T04:22:13;9.43;;;3.20;;
14165;SDS011;7162;52.422;13.754;2023-03-01T04:24:47;4.77;;;2.90;;
14165;SDS011;7162;52.422;13.754;2023-03-01T04:27:16;6.47;;;3.60;;
14165;SDS011;7162;52.422;13.754;2023-03-01T04:29:43;7.37;;;3.10;;
14165;SDS011;7162;52.422;13.754;2023-03-01T04:32:10;9.87;;;3.03;;
14165;SDS011;7162;52.422;13.754;2023-03-01T04:34:46;4.30;;;2.53;;
14165;SDS011;7162;52.422;13.754;2023-03-01T04:37:15;6.80;;;3.43;;
14165;SDS011;7162;52.422;13.754;2023-03-01T04:39:43;4.20;;;2.30;;
14165;SDS011;7162;52.422;13.754;2023-03-01T04:42:26;3.73;;;2.80;;
14165;SDS011;7162;52.422;13.754;2023-03-01T04:44:54;4.97;;;2.70;;
14165;SDS011;7162;52.422;13.754;2023-03-01T04:47:23;4.50;;;3.53;;
14165;SDS011;7162;52.422;13.754;2023-03-01T04:49:53;6.10;;;3.00;;
14165;SDS011;7162;52.422;13.754;2023-03-01T04:52:21;9.20;;;3.10;;
14165;SDS011;7162;52.422;13.754;2023-03-01T04:54:56;5.70;;;2.73;;
14165;SDS011;7162;52.422;13.754;2023-03-01T04:57:26;6.60;;;3.43;;
14165;SDS011;7162;52.422;13.754;2023-03-01T04:59:58;4.93;;;3.20;;
14165;SDS011;7162;52.422;13.754;2023-03-01T05:02:26;6.63;;;3.57;;
14165;SDS011;7162;52.422;13.754;2023-03-01T05:04:54;9.13;;;3.00;;
14165;SDS011;7162;52.422;13.754;2023-03-01T05:07:26;20.77;;;3.47;;
14165;SDS011;7162;52.422;13.754;2023-03-01T05:10:01;5.20;;;3.07;;
14165;SDS011;7162;52.422;13.754;2023-03-01T05:12:35;4.40;;;3.00;;
14165;SDS011;7162;52.422;13.754;2023-03-01T05:15:04;7.83;;;3.10;;
14165;SDS011;7162;52.422;13.754;2023-03-01T05:17:32;6.03;;;2.97;;
14165;SDS011;7162;52.422;13.754;2023-03-01T05:20:02;4.80;;;2.60;;
14165;SDS011;7162;52.422;13.754;2023-03-01T05:22:33;8.47;;;3.63;;
14165;SDS011;7162;52.422;13.754;2023-03-01T05:25:00;4.13;;;2.40;;
14165;SDS011;7162;52.422;13.754;2023-03-01T05:27:31;11.07;;;3.67;;
14165;SDS011;7162;52.422;13.754;2023-03-01T05:30:02;5.90;;;3.43;;
14165;SDS011;7162;52.422;13.754;2023-03-01T05:32:39;9.60;;;3.50;;
14165;SDS011;7162;52.422;13.754;2023-03-01T05:35:08;12.07;;;4.40;;
14165;SDS011;7162;52.422;13.754;2023-03-01T05:37:39;10.10;;;3.70;;
14165;SDS011;7162;52.422;13.754;2023-03-01T05:40:11;17.13;;;3.50;;
14165;SDS011;7162;52.422;13.754;2023-03-01T05:42:43;5.03;;;3.03;;
14165;SDS011;7162;52.422;13.754;2023-03-01T05:45:14;9.03;;;4.00;;
14165;SDS011;7162;52.422;13.754;2023-03-01T05:47:45;3.73;;;3.00;;
14165;SDS011;7162;52.422;13.754;2023-03-01T05:50:16;6.13;;;3.53;;
14165;SDS011;7162;52.422;13.754;2023-03-01T05:52:45;8.63;;;3.47;;
14165;SDS011;7162;52.422;13.754;2023-03-01T05:55:13;4.60;;;3.00;;
14165;SDS011;7162;52.422;13.754;2023-03-01T05:57:43;11.03;;;2.93;;
14165;SDS011;7162;52.422;13.754;2023-03-01T06:00:11;16.03;;;2.80;;
14165;SDS011;7162;52.422;13.754;2023-03-01T06:02:40;10.60;;;3.73;;
14165;SDS011;7162;52.422;13.754;2023-03-01T06:05:08;11.70;;;4.37;;
14165;SDS011;7162;52.422;13.754;2023-03-01T06:07:39;4.73;;;2.70;;
14165;SDS011;7162;52.422;13.754;2023-03-01T06:10:08;6.13;;;3.40;;
14165;SDS011;7162;52.422;13.754;2023-03-01T06:12:37;7.13;;;3.70;;
14165;SDS011;7162;52.422;13.754;2023-03-01T06:15:05;12.73;;;3.30;;
14165;SDS011;7162;52.422;13.754;2023-03-01T06:17:35;6.53;;;3.60;;
14165;SDS011;7162;52.422;13.754;2023-03-01T06:20:13;7.53;;;3.30;;
14165;SDS011;7162;52.422;13.754;2023-03-01T06:22:45;12.93;;;4.40;;
14165;SDS011;7162;52.422;13.754;2023-03-01T06:25:19;7.87;;;4.07;;
14165;SDS011;7162;52.422;13.754;2023-03-01T06:27:47;7.10;;;4.27;;
14165;SDS011;7162;52.422;13.754;2023-03-01T06:30:16;7.77;;;3.30;;
14165;SDS011;7162;52.422;13.754;2023-03-01T06:32:44;8.87;;;5.43;;
14165;SDS011;7162;52.422;13.754;2023-03-01T06:35:22;5.53;;;3.73;;
14165;SDS011;7162;52.422;13.754;2023-03-01T06:38:10;9.67;;;4.47;;
14165;SDS011;7162;52.422;13.754;2023-03-01T06:40:39;11.73;;;5.93;;
14165;SDS011;7162;52.422;13.754;2023-03-01T06:43:07;9.30;;;3.30;;
14165;SDS011;7162;52.422;13.754;2023-03-01T06:45:34;8.97;;;4.00;;
14165;SDS011;7162;52.422;13.754;2023-03-01T06:48:01;9.63;;;5.10;;
14165;SDS011;7162;52.422;13.754;2023-03-01T06:50:30;8.07;;;4.57;;
14165;SDS011;7162;52.422;13.754;2023-03-01T06:52:58;14.50;;;5.07;;
14165;SDS011;7162;52.422;13.754;2023-03-01T06:55:25;11.67;;;5.50;;
14165;SDS011;7162;52.422;13.754;2023-03-01T06:57:53;7.07;;;3.80;;
14165;SDS011;7162;52.422;13.754;2023-03-01T07:00:21;7.70;;;4.80;;
14165;SDS011;7162;52.422;13.754;2023-03-01T07:02:49;7.70;;;4.87;;
14165;SDS011;7162;52.422;13.754;2023-03-01T07:05:16;20.10;;;5.10;;
14165;SDS011;7162;52.422;13.754;2023-03-01T07:07:55;14.87;;;5.10;;
14165;SDS011;7162;52.422;13.754;2023-03-01T07:10:22;9.73;;;5.93;;
14165;SDS011;7162;52.422;13.754;2023-03-01T07:12:53;16.53;;;5.27;;
14165;SDS011;7162;52.422;13.754;2023-03-01T07:15:22;10.93;;;5.13;;
14165;SDS011;7162;52.422;13.754;2023-03-01T07:17:50;10.63;;;5.27;;
14165;SDS011;7162;52.422;13.754;2023-03-01T07:20:17;10.90;;;4.30;;
14165;SDS011;7162;52.422;13.754;2023-03-01T07:22:48;7.47;;;4.47;;
14165;SDS011;7162;52.422;13.754;2023-03-01T07:25:16;8.60;;;4.73;;
14165;SDS011;7162;52.422;13.754;2023-03-01T07:27:43;13.33;;;5.20;;
14165;SDS011;7162;52.422;13.754;2023-03-01T07:30:10;9.60;;;4.87;;
14165;SDS011;7162;52.422;13.754;2023-03-01T07:32:37;18.93;;;5.70;;
14165;SDS011;7162;52.422;13.754;2023-03-01T07:35:04;11.43;;;5.00;;
14165;SDS011;7162;52.422;13.754;2023-03-01T07:37:31;18.30;;;5.77;;
14165;SDS011;7162;52.422;13.754;2023-03-01T07:40:00;11.43;;;5.60;;
14165;SDS011;7162;52.422;13.754;2023-03-01T07:42:27;10.40;;;5.20;;
14165;SDS011;7162;52.422;13.754;2023-03-01T07:44:54;8.03;;;4.40;;
14165;SDS011;7162;52.422;13.754;2023-03-01T07:47:21;17.63;;;5.00;;
14165;SDS011;7162;52.422;13.754;2023-03-01T07:49:48;11.97;;;5.20;;
14165;SDS011;7162;52.422;13.754;2023-03-01T07:52:15;8.67;;;4.90;;
14165;SDS011;7162;52.422;13.754;2023-03-01T07:54:42;10.50;;;4.27;;
14165;SDS011;7162;52.422;13.754;2023-03-01T07:57:11;10.17;;;5.30;;
14165;SDS011;7162;52.422;13.754;2023-03-01T07:59:38;10.80;;;6.00;;
14165;SDS011;7162;52.422;13.754;2023-03-01T08:02:05;6.90;;;4.30;;
14165;SDS011;7162;52.422;13.754;2023-03-01T08:04:32;10.93;;;5.80;;
14165;SDS011;7162;52.422;13.754;2023-03-01T08:06:59;11.93;;;5.67;;
14165;SDS011;7162;52.422;13.754;2023-03-01T08:09:27;11.93;;;5.60;;
14165;SDS011;7162;52.422;13.754;2023-03-01T08:11:53;13.90;;;6.60;;
14165;SDS011;7162;52.422;13.754;2023-03-01T08:14:25;15.30;;;7.10;;
14165;SDS011;7162;52.422;13.754;2023-03-01T08:16:54;11.70;;;6.40;;
14165;SDS011;7162;52.422;13.754;2023-03-01T08:19:31;10.60;;;6.00;;
14165;SDS011;7162;52.422;13.754;2023-03-01T08:22:00;14.30;;;6.37;;
14165;SDS011;7162;52.422;13.754;2023-03-01T08:24:52;12.47;;;6.37;;
14165;SDS011;7162;52.422;13.754;2023-03-01T08:27:33;21.07;;;6.60;;
14165;SDS011;7162;52.422;13.754;2023-03-01T08:30:04;10.37;;;5.97;;
14165;SDS011;7162;52.422;13.754;2023-03-01T08:32:35;15.00;;;6.80;;
14165;SDS011;7162;52.422;13.754;2023-03-01T08:35:03;12.00;;;6.50;;
14165;SDS011;7162;52.422;13.754;2023-03-01T08:37:30;22.00;;;7.37;;
14165;SDS011;7162;52.422;13.754;2023-03-01T08:39:59;16.27;;;7.67;;
14165;SDS011;7162;52.422;13.754;2023-03-01T08:42:37;14.37;;;5.73;;
14165;SDS011;7162;52.422;13.754;2023-03-01T08:45:07;13.37;;;6.90;;
14165;SDS011;7162;52.422;13.754;2023-03-01T08:47:36;16.20;;;5.57;;
14165;SDS011;7162;52.422;13.754;2023-03-01T08:50:08;13.50;;;5.40;;
14165;SDS011;7162;52.422;13.754;2023-03-01T08:52:37;10.20;;;4.80;;
14165;SDS011;7162;52.422;13.754;2023-03-01T08:55:05;11.93;;;4.70;;
14165;SDS011;7162;52.422;13.754;2023-03-01T08:57:34;10.63;;;5.10;;
14165;SDS011;7162;52.422;13.754;2023-03-01T09:00:01;76.37;;;24.60;;
14165;SDS011;7162;52.422;13.754;2023-03-01T09:02:34;37.57;;;14.67;;
14165;SDS011;7162;52.422;13.754;2023-03-01T09:05:01;96.37;;;35.70;;
14165;SDS011;7162;52.422;13.754;2023-03-01T09:07:28;90.30;;;33.60;;
14165;SDS011;7162;52.422;13.754;2023-03-01T09:09:55;59.40;;;24.57;;
14165;SDS011;7162;52.422;13.754;2023-03-01T09:12:22;11.33;;;7.10;;
14165;SDS011;7162;52.422;13.754;2023-03-01T09:14:50;7.80;;;4.67;;
14165;SDS011;7162;52.422;13.754;2023-03-01T09:17:17;12.83;;;5.70;;
14165;SDS011;7162;52.422;13.754;2023-03-01T09:19:47;10.93;;;5.17;;
14165;SDS011;7162;52.422;13.754;2023-03-01T09:22:14;10.10;;;5.00;;
14165;SDS011;7162;52.422;13.754;2023-03-01T09:24:42;6.63;;;3.80;;
14165;SDS011;7162;52.422;13.754;2023-03-01T09:27:09;8.23;;;3.97;;
14165;SDS011;7162;52.422;13.754;2023-03-01T09:29:39;16.17;;;5.67;;
14165;SDS011;7162;52.422;13.754;2023-03-01T09:32:06;9.63;;;4.53;;
14165;SDS011;7162;52.422;13.754;2023-03-01T09:34:33;6.77;;;3.57;;
14165;SDS011;7162;52.422;13.754;2023-03-01T09:37:23;7.07;;;3.80;;
14165;SDS011;7162;52.422;13.754;2023-03-01T09:39:51;5.07;;;2.80;;
14165;SDS011;7162;52.422;13.754;2023-03-01T09:42:19;5.17;;;2.77;;
14165;SDS011;7162;52.422;13.754;2023-03-01T09:44:49;6.80;;;3.20;;
14165;SDS011;7162;52.422;13.754;2023-03-01T09:47:18;7.47;;;2.93;;
14165;SDS011;7162;52.422;13.754;2023-03-01T09:49:46;8.07;;;3.67;;
14165;SDS011;7162;52.422;13.754;2023-03-01T09:52:20;8.17;;;4.07;;
14165;SDS011;7162;52.422;13.754;2023-03-01T09:54:54;5.77;;;2.87;;
14165;SDS011;7162;52.422;13.754;2023-03-01T09:57:26;6.00;;;2.93;;
14165;SDS011;7162;52.422;13.754;2023-03-01T09:59:58;5.80;;;3.57;;
14165;SDS011;7162;52.422;13.754;2023-03-01T10:02:30;8.20;;;3.37;;
14165;SDS011;7162;52.422;13.754;2023-03-01T10:05:10;4.90;;;2.93;;
14165;SDS011;7162;52.422;13.754;2023-03-01T10:07:45;2.23;;;1.93;;
14165;SDS011;7162;52.422;13.754;2023-03-01T10:10:21;6.70;;;3.23;;
14165;SDS011;7162;52.422;13.754;2023-03-01T10:12:59;6.93;;;3.23;;
14165;SDS011;7162;52.422;13.754;2023-03-01T10:15:32;7.70;;;3.97;;
14165;SDS011;7162;52.422;13.754;2023-03-01T10:18:03;16.40;;;4.90;;
14165;SDS011;7162;52.422;13.754;2023-03-01T10:20:41;4.47;;;2.77;;
14165;SDS011;7162;52.422;13.754;2023-03-01T10:23:09;3.13;;;1.90;;
14165;SDS011;7162;52.422;13.754;2023-03-01T10:25:47;4.53;;;2.43;;
14165;SDS011;7162;52.422;13.754;2023-03-01T10:28:20;4.77;;;1.90;;
14165;SDS011;7162;52.422;13.754;2023-03-01T10:30:51;3.07;;;2.17;;
14165;SDS011;7162;52.422;13.754;2023-03-01T10:33:20;6.87;;;2.13;;
14165;SDS011;7162;52.422;13.754;2023-03-01T10:35:48;3.97;;;1.90;;
14165;SDS011;7162;52.422;13.754;2023-03-01T10:38:15;4.67;;;1.90;;
14165;SDS011;7162;52.422;13.754;2023-03-01T10:40:51;2.23;;;1.70;;
14165;SDS011;7162;52.422;13.754;2023-03-01T10:43:19;5.90;;;2.30;;
14165;SDS011;7162;52.422;13.754;2023-03-01T10:45:46;3.07;;;1.83;;
14165;SDS011;7162;52.422;13.754;2023-03-01T10:48:13;3.03;;;1.70;;
14165;SDS011;7162;52.422;13.754;2023-03-01T10:50:41;3.00;;;1.70;;
14165;SDS011;7162;52.422;13.754;2023-03-01T10:53:19;2.83;;;1.70;;
14165;SDS011;7162;52.422;13.754;2023-03-01T10:55:55;2.60;;;1.77;;
14165;SDS011;7162;52.422;13.754;2023-03-01T10:58:28;5.43;;;2.40;;
14165;SDS011;7162;52.422;13.754;2023-03-01T11:01:02;4.37;;;2.40;;
14165;SDS011;7162;52.422;13.754;2023-03-01T11:03:30;2.70;;;1.73;;
14165;SDS011;7162;52.422;13.754;2023-03-01T11:06:05;5.50;;;2.03;;
14165;SDS011;7162;52.422;13.754;2023-03-01T11:08:36;2.90;;;1.30;;
14165;SDS011;7162;52.422;13.754;2023-03-01T11:11:06;4.30;;;2.17;;
14165;SDS011;7162;52.422;13.754;2023-03-01T11:13:49;3.13;;;1.57;;
14165;SDS011;7162;52.422;13.754;2023-03-01T11:16:22;4.00;;;2.00;;
14165;SDS011;7162;52.422;13.754;2023-03-01T11:18:55;6.37;;;3.47;;
14165;SDS011;7162;52.422;13.754;2023-03-01T11:21:25;7.07;;;1.60;;
14165;SDS011;7162;52.422;13.754;2023-03-01T11:23:54;2.20;;;1.57;;
14165;SDS011;7162;52.422;13.754;2023-03-01T11:26:22;2.57;;;1.33;;
14165;SDS011;7162;52.422;13.754;2023-03-01T11:28:53;2.13;;;1.60;;
14165;SDS011;7162;52.422;13.754;2023-03-01T11:31:26;2.20;;;1.87;;
14165;SDS011;7162;52.422;13.754;2023-03-01T11:33:54;4.37;;;1.70;;
14165;SDS011;7162;52.422;13.754;2023-03-01T11:36:28;18.57;;;1.70;;
14165;SDS011;7162;52.422;13.754;2023-03-01T11:38:57;4.37;;;1.73;;
14165;SDS011;7162;52.422;13.754;2023-03-01T11:41:30;1.80;;;1.40;;
14165;SDS011;7162;52.422;13.754;2023-03-01T11:44:01;2.47;;;1.40;;
14165;SDS011;7162;52.422;13.754;2023-03-01T11:46:36;1.83;;;1.03;;
14165;SDS011;7162;52.422;13.754;2023-03-01T11:49:12;2.80;;;1.50;;
14165;SDS011;7162;52.422;13.754;2023-03-01T11:51:47;1.60;;;1.47;;
14165;SDS011;7162;52.422;13.754;2023-03-01T11:54:19;1.60;;;1.30;;
14165;SDS011;7162;52.422;13.754;2023-03-01T11:56:52;2.83;;;1.40;;
14165;SDS011;7162;52.422;13.754;2023-03-01T12:02:18;3.07;;;1.13;;
14165;SDS011;7162;52.422;13.754;2023-03-01T12:04:53;5.43;;;1.83;;
14165;SDS011;7162;52.422;13.754;2023-03-01T12:07:25;4.20;;;2.03;;
14165;SDS011;7162;52.422;13.754;2023-03-01T12:09:59;1.30;;;1.20;;
14165;SDS011;7162;52.422;13.754;2023-03-01T12:12:32;2.67;;;1.30;;
14165;SDS011;7162;52.422;13.754;2023-03-01T12:18:00;2.70;;;1.73;;
14165;SDS011;7162;52.422;13.754;2023-03-01T12:20:39;1.70;;;1.60;;
14165;SDS011;7162;52.422;13.754;2023-03-01T12:23:21;3.40;;;1.40;;
14165;SDS011;7162;52.422;13.754;2023-03-01T12:25:52;3.43;;;0.90;;
14165;SDS011;7162;52.422;13.754;2023-03-01T12:28:25;1.07;;;0.97;;
14165;SDS011;7162;52.422;13.754;2023-03-01T12:30:59;3.07;;;1.37;;
14165;SDS011;7162;52.422;13.754;2023-03-01T12:33:34;1.97;;;1.43;;
14165;SDS011;7162;52.422;13.754;2023-03-01T12:38:57;4.63;;;1.37;;
14165;SDS011;7162;52.422;13.754;2023-03-01T12:41:31;7.80;;;1.60;;
14165;SDS011;7162;52.422;13.754;2023-03-01T12:44:08;4.90;;;1.80;;
14165;SDS011;7162;52.422;13.754;2023-03-01T12:46:50;2.13;;;1.47;;
14165;SDS011;7162;52.422;13.754;2023-03-01T12:49:23;3.30;;;1.83;;
14165;SDS011;7162;52.422;13.754;2023-03-01T12:51:54;2.13;;;1.90;;
14165;SDS011;7162;52.422;13.754;2023-03-01T12:54:25;2.30;;;1.67;;
14165;SDS011;7162;52.422;13.754;2023-03-01T12:56:57;2.50;;;1.60;;
14165;SDS011;7162;52.422;13.754;2023-03-01T12:59:28;4.73;;;1.40;;
14165;SDS011;7162;52.422;13.754;2023-03-01T13:02:02;1.90;;;1.60;;
14165;SDS011;7162;52.422;13.754;2023-03-01T13:04:33;3.60;;;1.70;;
14165;SDS011;7162;52.422;13.754;2023-03-01T13:07:15;5.00;;;1.80;;
14165;SDS011;7162;52.422;13.754;2023-03-01T13:09:54;11.63;;;1.40;;
14165;SDS011;7162;52.422;13.754;2023-03-01T13:12:45;4.27;;;1.93;;
14165;SDS011;7162;52.422;13.754;2023-03-01T13:17:55;2.80;;;1.37;;
14165;SDS011;7162;52.422;13.754;2023-03-01T13:20:29;1.57;;;1.30;;
14165;SDS011;7162;52.422;13.754;2023-03-01T13:23:01;2.50;;;1.50;;
14165;SDS011;7162;52.422;13.754;2023-03-01T13:25:30;2.20;;;1.63;;
14165;SDS011;7162;52.422;13.754;2023-03-01T13:30:47;1.80;;;1.30;;
14165;SDS011;7162;52.422;13.754;2023-03-01T13:36:02;1.60;;;1.13;;
14165;SDS011;7162;52.422;13.754;2023-03-01T13:38:37;5.43;;;1.93;;
14165;SDS011;7162;52.422;13.754;2023-03-01T13:41:04;3.90;;;1.60;;
14165;SDS011;7162;52.422;13.754;2023-03-01T13:43:32;3.60;;;1.50;;
14165;SDS011;7162;52.422;13.754;2023-03-01T13:46:03;6.80;;;1.60;;
14165;SDS011;7162;52.422;13.754;2023-03-01T13:48:34;5.33;;;2.17;;
14165;SDS011;7162;52.422;13.754;2023-03-01T13:51:03;2.00;;;1.20;;
14165;SDS011;7162;52.422;13.754;2023-03-01T13:53:35;1.43;;;1.33;;
14165;SDS011;7162;52.422;13.754;2023-03-01T13:56:12;2.20;;;1.30;;
14165;SDS011;7162;52.422;13.754;2023-03-01T13:58:48;1.97;;;1.30;;
14165;SDS011;7162;52.422;13.754;2023-03-01T14:01:40;1.83;;;1.10;;
14165;SDS011;7162;52.422;13.754;2023-03-01T14:04:18;2.63;;;1.40;;
14165;SDS011;7162;52.422;13.754;2023-03-01T14:09:56;6.93;;;3.40;;
14165;SDS011;7162;52.422;13.754;2023-03-01T14:12:52;9.00;;;3.20;;
14165;SDS011;7162;52.422;13.754;2023-03-01T14:18:03;1.73;;;1.40;;
14165;SDS011;7162;52.422;13.754;2023-03-01T14:20:38;3.20;;;1.70;;
14165;SDS011;7162;52.422;13.754;2023-03-01T14:23:14;3.53;;;1.47;;
14165;SDS011;7162;52.422;13.754;2023-03-01T14:25:47;1.80;;;1.70;;
14165;SDS011;7162;52.422;13.754;2023-03-01T14:28:18;1.70;;;1.47;;
14165;SDS011;7162;52.422;13.754;2023-03-01T14:30:47;2.87;;;1.33;;
14165;SDS011;7162;52.422;13.754;2023-03-01T14:33:19;3.77;;;1.63;;
14165;SDS011;7162;52.422;13.754;2023-03-01T14:35:54;4.53;;;1.40;;
14165;SDS011;7162;52.422;13.754;2023-03-01T14:38:33;2.80;;;1.73;;
14165;SDS011;7162;52.422;13.754;2023-03-01T14:41:03;5.20;;;1.50;;
14165;SDS011;7162;52.422;13.754;2023-03-01T14:43:37;1.87;;;1.57;;
14165;SDS011;7162;52.422;13.754;2023-03-01T14:46:25;3.00;;;1.90;;
14165;SDS011;7162;52.422;13.754;2023-03-01T14:49:10;2.50;;;1.50;;
14165;SDS011;7162;52.422;13.754;2023-03-01T14:51:51;1.90;;;1.53;;
14165;SDS011;7162;52.422;13.754;2023-03-01T14:54:21;4.67;;;1.77;;
14165;SDS011;7162;52.422;13.754;2023-03-01T14:56:53;5.00;;;1.60;;
14165;SDS011;7162;52.422;13.754;2023-03-01T14:59:24;1.30;;;1.20;;
14165;SDS011;7162;52.422;13.754;2023-03-01T15:01:58;2.60;;;1.33;;
14165;SDS011;7162;52.422;13.754;2023-03-01T15:04:31;3.03;;;1.80;;
14165;SDS011;7162;52.422;13.754;2023-03-01T15:06:59;11.60;;;1.50;;
14165;SDS011;7162;52.422;13.754;2023-03-01T15:09:29;2.30;;;1.50;;
14165;SDS011;7162;52.422;13.754;2023-03-01T15:12:01;4.20;;;1.70;;
14165;SDS011;7162;52.422;13.754;2023-03-01T15:14:51;2.40;;;1.40;;
14165;SDS011;7162;52.422;13.754;2023-03-01T15:17:20;2.73;;;1.57;;
14165;SDS011;7162;52.422;13.754;2023-03-01T15:19:51;4.03;;;1.80;;
14165;SDS011;7162;52.422;13.754;2023-03-01T15:22:21;4.20;;;1.53;;
14165;SDS011;7162;52.422;13.754;2023-03-01T15:24:52;3.73;;;1.97;;
14165;SDS011;7162;52.422;13.754;2023-03-01T15:27:23;5.40;;;2.07;;
14165;SDS011;7162;52.422;13.754;2023-03-01T15:29:55;3.83;;;1.60;;
14165;SDS011;7162;52.422;13.754;2023-03-01T15:32:25;2.00;;;1.50;;
14165;SDS011;7162;52.422;13.754;2023-03-01T15:34:52;7.00;;;1.67;;